sensor_id;sensor_type;location;lat;lon;timestamp;pressure;altitude;pressure_sealevel;temperature;humidity
15674;BME280;7937;48.090;16.212;2024-03-22T00:02:23;98152.19;;;10.11;95.89
15674;BME280;7937;48.090;16.212;2024-03-22T00:05:24;98148.50;;;10.12;95.58
15674;BME280;7937;48.090;16.212;2024-03-22T00:08:25;98159.84;;;9.89;96.37
15674;BME280;7937;48.090;16.212;2024-03-22T00:11:26;98159.22;;;9.75;98.53
15674;BME280;7937;48.090;16.212;2024-03-22T00:14:27;98152.63;;;9.96;98.15
15674;BME280;7937;48.090;16.212;2024-03-22T00:17:28;98167.16;;;9.93;97.18
15674;BME280;7937;48.090;16.212;2024-03-22T00:20:31;98176.19;;;9.92;98.44
15674;BME280;7937;48.090;16.212;2024-03-22T00:23:32;98168.50;;;10.14;97.77
15674;BME280;7937;48.090;16.212;2024-03-22T00:26:33;98169.66;;;10.25;96.58
15674;BME280;7937;48.090;16.212;2024-03-22T00:29:34;98175.81;;;10.19;97.34
15674;BME280;7937;48.090;16.212;2024-03-22T00:32:35;98180.94;;;10.20;96.49
15674;BME280;7937;48.090;16.212;2024-03-22T00:35:36;98175.25;;;10.17;96.81
15674;BME280;7937;48.090;16.212;2024-03-22T00:38:37;98177.88;;;10.05;98.82
15674;BME280;7937;48.090;16.212;2024-03-22T00:41:38;98169.97;;;10.28;96.61
15674;BME280;7937;48.090;16.212;2024-03-22T00:44:40;98170.66;;;10.24;97.45
15674;BME280;7937;48.090;16.212;2024-03-22T00:47:41;98146.41;;;10.14;96.74
15674;BME280;7937;48.090;16.212;2024-03-22T00:50:42;98150.53;;;9.98;98.32
15674;BME280;7937;48.090;16.212;2024-03-22T00:53:43;98157.13;;;9.95;99.00
15674;BME280;7937;48.090;16.212;2024-03-22T00:56:44;98149.97;;;10.07;97.77
15674;BME280;7937;48.090;16.212;2024-03-22T00:59:44;98177.00;;;10.23;97.29
15674;BME280;7937;48.090;16.212;2024-03-22T01:02:46;98166.75;;;10.38;96.09
15674;BME280;7937;48.090;16.212;2024-03-22T01:05:46;98183.47;;;10.45;95.29
15674;BME280;7937;48.090;16.212;2024-03-22T01:08:48;98170.84;;;10.41;94.99
15674;BME280;7937;48.090;16.212;2024-03-22T01:11:49;98177.22;;;10.40;95.05
15674;BME280;7937;48.090;16.212;2024-03-22T01:14:50;98163.03;;;10.27;94.65
15674;BME280;7937;48.090;16.212;2024-03-22T01:17:52;98164.91;;;10.39;94.07
15674;BME280;7937;48.090;16.212;2024-03-22T01:20:54;98146.88;;;10.52;92.96
15674;BME280;7937;48.090;16.212;2024-03-22T01:23:55;98148.03;;;10.45;93.06
15674;BME280;7937;48.090;16.212;2024-03-22T01:26:56;98153.44;;;10.38;93.57
15674;BME280;7937;48.090;16.212;2024-03-22T01:29:57;98156.09;;;10.38;93.63
15674;BME280;7937;48.090;16.212;2024-03-22T01:32:58;98140.38;;;10.37;93.33
15674;BME280;7937;48.090;16.212;2024-03-22T01:35:59;98127.53;;;10.45;92.47
15674;BME280;7937;48.090;16.212;2024-03-22T01:39:00;98158.91;;;10.43;92.19
15674;BME280;7937;48.090;16.212;2024-03-22T01:42:01;98141.06;;;10.32;92.54
15674;BME280;7937;48.090;16.212;2024-03-22T01:45:02;98138.63;;;10.42;91.57
15674;BME280;7937;48.090;16.212;2024-03-22T01:48:04;98161.22;;;10.40;92.07
15674;BME280;7937;48.090;16.212;2024-03-22T01:51:06;98154.16;;;10.45;92.22
15674;BME280;7937;48.090;16.212;2024-03-22T01:54:09;98155.22;;;10.44;91.84
15674;BME280;7937;48.090;16.212;2024-03-22T01:57:11;98148.72;;;10.40;92.39
15674;BME280;7937;48.090;16.212;2024-03-22T02:00:12;98157.47;;;10.29;93.08
15674;BME280;7937;48.090;16.212;2024-03-22T02:03:16;98162.06;;;10.22;94.81
15674;BME280;7937;48.090;16.212;2024-03-22T02:06:17;98168.31;;;10.16;96.14
15674;BME280;7937;48.090;16.212;2024-03-22T02:09:18;98182.38;;;10.04;98.13
15674;BME280;7937;48.090;16.212;2024-03-22T02:12:22;98183.28;;;9.98;99.68
15674;BME280;7937;48.090;16.212;2024-03-22T02:15:23;98163.06;;;9.79;100.00
15674;BME280;7937;48.090;16.212;2024-03-22T02:18:24;98172.25;;;9.95;100.00
15674;BME280;7937;48.090;16.212;2024-03-22T02:21:25;98166.25;;;9.99;99.42
15674;BME280;7937;48.090;16.212;2024-03-22T02:24:26;98169.25;;;9.91;100.00
15674;BME280;7937;48.090;16.212;2024-03-22T02:27:27;98160.63;;;9.77;100.00
15674;BME280;7937;48.090;16.212;2024-03-22T02:30:28;98155.31;;;9.77;100.00
15674;BME280;7937;48.090;16.212;2024-03-22T02:33:30;98160.09;;;9.87;99.49
15674;BME280;7937;48.090;16.212;2024-03-22T02:36:31;98157.53;;;9.80;100.00
15674;BME280;7937;48.090;16.212;2024-03-22T02:39:32;98148.66;;;9.87;98.28
15674;BME280;7937;48.090;16.212;2024-03-22T02:42:35;98148.28;;;9.83;98.66
15674;BME280;7937;48.090;16.212;2024-03-22T02:45:39;98129.94;;;9.75;99.14
15674;BME280;7937;48.090;16.212;2024-03-22T02:48:40;98153.31;;;9.73;99.94
15674;BME280;7937;48.090;16.212;2024-03-22T02:51:41;98148.09;;;9.96;96.03
15674;BME280;7937;48.090;16.212;2024-03-22T02:54:42;98143.47;;;10.03;95.20
15674;BME280;7937;48.090;16.212;2024-03-22T02:57:43;98147.38;;;9.89;96.26
15674;BME280;7937;48.090;16.212;2024-03-22T03:00:44;98144.13;;;9.87;95.59
15674;BME280;7937;48.090;16.212;2024-03-22T03:03:45;98146.75;;;9.75;97.85
15674;BME280;7937;48.090;16.212;2024-03-22T03:06:46;98146.78;;;9.87;95.50
15674;BME280;7937;48.090;16.212;2024-03-22T03:09:47;98116.19;;;9.48;98.22
15674;BME280;7937;48.090;16.212;2024-03-22T03:12:48;98128.06;;;9.45;98.88
15674;BME280;7937;48.090;16.212;2024-03-22T03:15:49;98133.25;;;9.59;97.81
15674;BME280;7937;48.090;16.212;2024-03-22T03:18:50;98143.53;;;9.37;99.06
15674;BME280;7937;48.090;16.212;2024-03-22T03:21:51;98135.84;;;9.28;99.70
15674;BME280;7937;48.090;16.212;2024-03-22T03:24:52;98133.47;;;9.39;98.52
15674;BME280;7937;48.090;16.212;2024-03-22T03:27:53;98139.56;;;9.46;97.90
15674;BME280;7937;48.090;16.212;2024-03-22T03:30:54;98138.88;;;9.32;98.72
15674;BME280;7937;48.090;16.212;2024-03-22T03:33:55;98136.22;;;9.32;99.08
15674;BME280;7937;48.090;16.212;2024-03-22T03:36:56;98138.81;;;9.39;98.67
15674;BME280;7937;48.090;16.212;2024-03-22T03:40:01;98141.44;;;9.75;95.52
15674;BME280;7937;48.090;16.212;2024-03-22T03:43:02;98142.09;;;9.71;96.97
15674;BME280;7937;48.090;16.212;2024-03-22T03:46:04;98143.78;;;9.65;97.61
15674;BME280;7937;48.090;16.212;2024-03-22T03:49:05;98139.88;;;9.68;95.48
15674;BME280;7937;48.090;16.212;2024-03-22T03:52:06;98148.00;;;9.73;95.66
15674;BME280;7937;48.090;16.212;2024-03-22T03:55:08;98139.13;;;9.79;96.54
15674;BME280;7937;48.090;16.212;2024-03-22T03:58:08;98138.03;;;9.68;96.70
15674;BME280;7937;48.090;16.212;2024-03-22T04:01:09;98149.44;;;9.57;97.82
15674;BME280;7937;48.090;16.212;2024-03-22T04:04:10;98134.56;;;9.49;99.21
15674;BME280;7937;48.090;16.212;2024-03-22T04:07:11;98140.22;;;9.41;99.95
15674;BME280;7937;48.090;16.212;2024-03-22T04:10:12;98139.31;;;9.66;95.11
15674;BME280;7937;48.090;16.212;2024-03-22T04:13:13;98137.06;;;9.81;93.68
15674;BME280;7937;48.090;16.212;2024-03-22T04:16:15;98145.47;;;9.78;94.47
15674;BME280;7937;48.090;16.212;2024-03-22T04:19:16;98137.88;;;9.81;94.93
15674;BME280;7937;48.090;16.212;2024-03-22T04:22:18;98131.41;;;9.89;93.20
15674;BME280;7937;48.090;16.212;2024-03-22T04:25:19;98126.06;;;9.89;92.30
15674;BME280;7937;48.090;16.212;2024-03-22T04:28:20;98120.84;;;9.82;93.18
15674;BME280;7937;48.090;16.212;2024-03-22T04:31:21;98118.09;;;9.89;91.17
15674;BME280;7937;48.090;16.212;2024-03-22T04:34:22;98126.41;;;9.81;92.79
15674;BME280;7937;48.090;16.212;2024-03-22T04:37:23;98095.59;;;9.73;90.99
15674;BME280;7937;48.090;16.212;2024-03-22T04:40:24;98118.31;;;9.88;91.02
15674;BME280;7937;48.090;16.212;2024-03-22T04:43:26;98123.06;;;9.86;92.36
15674;BME280;7937;48.090;16.212;2024-03-22T04:46:27;98117.00;;;9.78;92.05
15674;BME280;7937;48.090;16.212;2024-03-22T04:49:28;98117.28;;;9.89;89.99
15674;BME280;7937;48.090;16.212;2024-03-22T04:52:29;98115.84;;;9.74;92.09
15674;BME280;7937;48.090;16.212;2024-03-22T04:55:31;98123.34;;;9.66;93.53
15674;BME280;7937;48.090;16.212;2024-03-22T04:58:33;98118.91;;;9.60;93.03
15674;BME280;7937;48.090;16.212;2024-03-22T05:01:34;98122.91;;;9.50;94.62
15674;BME280;7937;48.090;16.212;2024-03-22T05:04:35;98113.97;;;9.45;96.45
15674;BME280;7937;48.090;16.212;2024-03-22T05:07:38;98106.81;;;9.45;93.21
15674;BME280;7937;48.090;16.212;2024-03-22T05:10:39;98103.53;;;9.92;89.03
15674;BME280;7937;48.090;16.212;2024-03-22T05:13:40;98115.41;;;9.77;91.46
15674;BME280;7937;48.090;16.212;2024-03-22T05:16:41;98116.66;;;9.75;91.55
15674;BME280;7937;48.090;16.212;2024-03-22T05:19:42;98111.88;;;9.65;91.66
15674;BME280;7937;48.090;16.212;2024-03-22T05:22:43;98105.88;;;9.70;91.80
15674;BME280;7937;48.090;16.212;2024-03-22T05:25:44;98104.63;;;9.72;91.41
15674;BME280;7937;48.090;16.212;2024-03-22T05:28:46;98107.91;;;9.56;93.03
15674;BME280;7937;48.090;16.212;2024-03-22T05:31:48;98111.44;;;9.50;93.05
15674;BME280;7937;48.090;16.212;2024-03-22T05:34:52;98110.38;;;9.39;94.84
15674;BME280;7937;48.090;16.212;2024-03-22T05:37:53;98106.69;;;9.22;96.24
15674;BME280;7937;48.090;16.212;2024-03-22T05:40:55;98105.44;;;9.24;95.62
15674;BME280;7937;48.090;16.212;2024-03-22T05:43:55;98109.75;;;9.55;92.58
15674;BME280;7937;48.090;16.212;2024-03-22T05:46:57;98108.94;;;9.55;92.71
15674;BME280;7937;48.090;16.212;2024-03-22T05:49:58;98103.41;;;9.56;92.77
15674;BME280;7937;48.090;16.212;2024-03-22T05:52:59;98107.97;;;9.49;93.84
15674;BME280;7937;48.090;16.212;2024-03-22T05:56:00;98094.19;;;9.41;95.48
15674;BME280;7937;48.090;16.212;2024-03-22T05:59:01;98105.84;;;9.40;96.67
15674;BME280;7937;48.090;16.212;2024-03-22T06:02:02;98095.16;;;9.46;95.97
15674;BME280;7937;48.090;16.212;2024-03-22T06:05:04;98088.31;;;9.50;96.78
15674;BME280;7937;48.090;16.212;2024-03-22T06:08:05;98085.53;;;9.45;98.07
15674;BME280;7937;48.090;16.212;2024-03-22T06:11:07;98087.22;;;9.58;96.26
15674;BME280;7937;48.090;16.212;2024-03-22T06:14:08;98096.88;;;9.71;94.60
15674;BME280;7937;48.090;16.212;2024-03-22T06:17:10;98078.59;;;9.74;95.09
15674;BME280;7937;48.090;16.212;2024-03-22T06:20:11;98094.81;;;9.85;93.70
15674;BME280;7937;48.090;16.212;2024-03-22T06:23:13;98080.16;;;10.36;86.90
15674;BME280;7937;48.090;16.212;2024-03-22T06:26:14;98078.53;;;10.46;87.27
15674;BME280;7937;48.090;16.212;2024-03-22T06:29:15;98077.13;;;10.32;88.09
15674;BME280;7937;48.090;16.212;2024-03-22T06:32:19;98073.31;;;10.28;86.87
15674;BME280;7937;48.090;16.212;2024-03-22T06:35:21;98082.00;;;10.58;84.59
15674;BME280;7937;48.090;16.212;2024-03-22T06:38:22;98085.97;;;10.56;85.76
15674;BME280;7937;48.090;16.212;2024-03-22T06:41:23;98086.41;;;10.53;84.99
15674;BME280;7937;48.090;16.212;2024-03-22T06:44:24;98075.78;;;10.65;84.36
15674;BME280;7937;48.090;16.212;2024-03-22T06:47:25;98086.53;;;10.58;85.14
15674;BME280;7937;48.090;16.212;2024-03-22T06:50:26;98071.22;;;10.77;82.61
15674;BME280;7937;48.090;16.212;2024-03-22T06:53:27;98071.56;;;10.69;85.56
15674;BME280;7937;48.090;16.212;2024-03-22T06:56:28;98077.84;;;10.63;86.97
15674;BME280;7937;48.090;16.212;2024-03-22T06:59:29;98066.38;;;10.74;83.21
15674;BME280;7937;48.090;16.212;2024-03-22T07:02:30;98072.50;;;10.86;84.94
15674;BME280;7937;48.090;16.212;2024-03-22T07:05:31;98060.47;;;10.72;83.93
15674;BME280;7937;48.090;16.212;2024-03-22T07:08:32;98082.13;;;10.75;83.31
15674;BME280;7937;48.090;16.212;2024-03-22T07:11:33;98087.56;;;10.92;84.03
15674;BME280;7937;48.090;16.212;2024-03-22T07:14:34;98077.91;;;11.15;82.87
15674;BME280;7937;48.090;16.212;2024-03-22T07:17:35;98077.59;;;10.99;82.25
15674;BME280;7937;48.090;16.212;2024-03-22T07:20:36;98068.19;;;11.08;82.93
15674;BME280;7937;48.090;16.212;2024-03-22T07:23:37;98059.25;;;11.15;80.73
15674;BME280;7937;48.090;16.212;2024-03-22T07:26:38;98042.09;;;11.10;79.62
15674;BME280;7937;48.090;16.212;2024-03-22T07:29:39;98056.56;;;11.15;80.25
15674;BME280;7937;48.090;16.212;2024-03-22T07:32:40;98048.53;;;11.26;80.31
15674;BME280;7937;48.090;16.212;2024-03-22T07:35:42;98052.78;;;11.39;81.81
15674;BME280;7937;48.090;16.212;2024-03-22T07:38:43;98069.66;;;11.56;79.31
15674;BME280;7937;48.090;16.212;2024-03-22T07:41:44;98065.13;;;11.57;77.55
15674;BME280;7937;48.090;16.212;2024-03-22T07:44:45;98040.78;;;11.53;77.09
15674;BME280;7937;48.090;16.212;2024-03-22T07:47:46;98056.66;;;11.77;73.92
15674;BME280;7937;48.090;16.212;2024-03-22T07:50:55;98063.78;;;11.83;76.90
15674;BME280;7937;48.090;16.212;2024-03-22T07:53:57;98041.50;;;11.77;74.39
15674;BME280;7937;48.090;16.212;2024-03-22T07:56:58;98043.72;;;11.97;72.00
15674;BME280;7937;48.090;16.212;2024-03-22T07:59:59;98043.81;;;12.02;75.68
15674;BME280;7937;48.090;16.212;2024-03-22T08:03:00;98048.50;;;12.12;72.28
15674;BME280;7937;48.090;16.212;2024-03-22T08:06:01;98048.59;;;12.17;71.13
15674;BME280;7937;48.090;16.212;2024-03-22T08:09:02;98053.22;;;12.22;73.12
15674;BME280;7937;48.090;16.212;2024-03-22T08:12:04;98039.94;;;12.27;69.14
15674;BME280;7937;48.090;16.212;2024-03-22T08:15:05;98060.47;;;12.26;70.45
15674;BME280;7937;48.090;16.212;2024-03-22T08:18:06;98037.41;;;12.20;69.88
15674;BME280;7937;48.090;16.212;2024-03-22T08:21:07;98043.06;;;12.40;69.48
15674;BME280;7937;48.090;16.212;2024-03-22T08:24:08;98043.78;;;12.36;68.44
15674;BME280;7937;48.090;16.212;2024-03-22T08:27:10;98053.22;;;12.60;69.89
15674;BME280;7937;48.090;16.212;2024-03-22T08:30:11;98050.47;;;12.72;66.11
15674;BME280;7937;48.090;16.212;2024-03-22T08:33:12;98018.72;;;12.37;67.63
15674;BME280;7937;48.090;16.212;2024-03-22T08:36:13;98064.06;;;12.71;66.40
15674;BME280;7937;48.090;16.212;2024-03-22T08:39:14;98058.00;;;12.75;67.96
15674;BME280;7937;48.090;16.212;2024-03-22T08:42:16;98047.41;;;13.02;65.52
15674;BME280;7937;48.090;16.212;2024-03-22T08:45:17;98064.53;;;13.45;66.38
15674;BME280;7937;48.090;16.212;2024-03-22T08:48:19;98048.31;;;13.84;61.18
15674;BME280;7937;48.090;16.212;2024-03-22T08:51:21;98059.06;;;13.89;61.08
15674;BME280;7937;48.090;16.212;2024-03-22T08:54:22;98039.47;;;13.83;60.85
15674;BME280;7937;48.090;16.212;2024-03-22T08:57:23;98037.75;;;13.99;60.30
15674;BME280;7937;48.090;16.212;2024-03-22T09:00:25;98040.03;;;13.85;60.99
15674;BME280;7937;48.090;16.212;2024-03-22T09:03:26;98043.56;;;13.91;61.20
15674;BME280;7937;48.090;16.212;2024-03-22T09:06:27;98049.69;;;13.59;60.16
15674;BME280;7937;48.090;16.212;2024-03-22T09:09:28;98048.22;;;13.74;60.32
15674;BME280;7937;48.090;16.212;2024-03-22T09:12:29;98040.88;;;13.37;59.87
15674;BME280;7937;48.090;16.212;2024-03-22T09:15:30;98036.06;;;13.39;62.33
15674;BME280;7937;48.090;16.212;2024-03-22T09:18:31;98036.66;;;13.41;61.75
15674;BME280;7937;48.090;16.212;2024-03-22T09:21:33;98031.31;;;13.41;61.32
15674;BME280;7937;48.090;16.212;2024-03-22T09:24:34;98025.84;;;13.58;60.62
15674;BME280;7937;48.090;16.212;2024-03-22T09:27:35;98010.22;;;13.77;63.32
15674;BME280;7937;48.090;16.212;2024-03-22T09:30:40;98009.56;;;13.91;60.66
15674;BME280;7937;48.090;16.212;2024-03-22T09:33:42;98010.28;;;14.14;58.52
15674;BME280;7937;48.090;16.212;2024-03-22T09:36:43;98002.38;;;13.97;60.61
15674;BME280;7937;48.090;16.212;2024-03-22T09:39:44;98013.16;;;14.07;59.15
15674;BME280;7937;48.090;16.212;2024-03-22T09:42:47;98000.75;;;13.96;58.68
15674;BME280;7937;48.090;16.212;2024-03-22T09:45:49;98004.16;;;13.86;60.04
15674;BME280;7937;48.090;16.212;2024-03-22T09:48:52;97993.91;;;14.10;61.25
15674;BME280;7937;48.090;16.212;2024-03-22T09:51:54;97996.09;;;14.18;57.28
15674;BME280;7937;48.090;16.212;2024-03-22T09:54:55;97994.63;;;14.01;59.48
15674;BME280;7937;48.090;16.212;2024-03-22T09:57:56;97989.59;;;14.04;56.58
15674;BME280;7937;48.090;16.212;2024-03-22T10:00:59;97965.22;;;14.06;60.40
15674;BME280;7937;48.090;16.212;2024-03-22T10:04:02;97988.19;;;14.34;55.05
15674;BME280;7937;48.090;16.212;2024-03-22T10:07:03;97988.44;;;14.32;57.38
15674;BME280;7937;48.090;16.212;2024-03-22T10:10:05;97987.31;;;14.65;55.74
15674;BME280;7937;48.090;16.212;2024-03-22T10:13:06;97981.25;;;14.85;54.72
15674;BME280;7937;48.090;16.212;2024-03-22T10:16:07;97968.50;;;14.55;54.05
15674;BME280;7937;48.090;16.212;2024-03-22T10:19:08;97982.06;;;14.38;57.10
15674;BME280;7937;48.090;16.212;2024-03-22T10:22:09;97975.34;;;14.41;54.82
15674;BME280;7937;48.090;16.212;2024-03-22T10:25:10;97976.09;;;14.74;53.19
15674;BME280;7937;48.090;16.212;2024-03-22T10:28:13;97976.97;;;14.42;53.95
15674;BME280;7937;48.090;16.212;2024-03-22T10:31:14;97982.41;;;14.52;54.53
15674;BME280;7937;48.090;16.212;2024-03-22T10:34:16;97967.41;;;14.51;52.17
15674;BME280;7937;48.090;16.212;2024-03-22T10:37:20;97944.28;;;14.45;54.30
15674;BME280;7937;48.090;16.212;2024-03-22T10:40:22;97968.50;;;14.55;52.93
15674;BME280;7937;48.090;16.212;2024-03-22T10:43:23;97977.97;;;14.73;52.94
15674;BME280;7937;48.090;16.212;2024-03-22T10:46:30;97958.63;;;14.66;53.72
15674;BME280;7937;48.090;16.212;2024-03-22T10:49:35;97970.66;;;14.58;50.78
15674;BME280;7937;48.090;16.212;2024-03-22T10:55:50;97958.03;;;14.54;52.42
15674;BME280;7937;48.090;16.212;2024-03-22T10:58:53;97957.34;;;14.79;50.82
15674;BME280;7937;48.090;16.212;2024-03-22T11:02:02;97957.00;;;14.60;50.99
15674;BME280;7937;48.090;16.212;2024-03-22T11:05:04;97948.16;;;14.59;51.72
15674;BME280;7937;48.090;16.212;2024-03-22T11:08:06;97947.78;;;14.45;50.53
15674;BME280;7937;48.090;16.212;2024-03-22T11:11:11;97941.41;;;14.57;51.30
15674;BME280;7937;48.090;16.212;2024-03-22T11:14:12;97936.44;;;14.81;51.61
15674;BME280;7937;48.090;16.212;2024-03-22T11:17:13;97932.63;;;14.71;51.43
15674;BME280;7937;48.090;16.212;2024-03-22T11:20:14;97931.88;;;14.86;49.94
15674;BME280;7937;48.090;16.212;2024-03-22T11:23:16;97919.50;;;14.70;49.85
15674;BME280;7937;48.090;16.212;2024-03-22T11:26:17;97913.13;;;14.86;49.74
15674;BME280;7937;48.090;16.212;2024-03-22T11:29:19;97919.81;;;14.84;49.42
15674;BME280;7937;48.090;16.212;2024-03-22T11:32:21;97919.28;;;14.87;50.14
15674;BME280;7937;48.090;16.212;2024-03-22T11:35:23;97917.50;;;15.18;47.72
15674;BME280;7937;48.090;16.212;2024-03-22T11:38:26;97921.50;;;15.15;47.44
15674;BME280;7937;48.090;16.212;2024-03-22T11:41:29;97905.88;;;14.92;47.41
15674;BME280;7937;48.090;16.212;2024-03-22T11:44:32;97903.50;;;15.06;47.76
15674;BME280;7937;48.090;16.212;2024-03-22T11:47:33;97891.47;;;15.23;48.87
15674;BME280;7937;48.090;16.212;2024-03-22T11:50:36;97891.50;;;15.44;47.26
15674;BME280;7937;48.090;16.212;2024-03-22T11:53:37;97886.41;;;15.58;44.87
15674;BME280;7937;48.090;16.212;2024-03-22T11:56:40;97892.81;;;15.52;45.17
15674;BME280;7937;48.090;16.212;2024-03-22T11:59:41;97873.47;;;15.09;45.39
15674;BME280;7937;48.090;16.212;2024-03-22T12:02:43;97865.44;;;15.29;45.08
15674;BME280;7937;48.090;16.212;2024-03-22T12:05:44;97856.06;;;15.72;42.59
15674;BME280;7937;48.090;16.212;2024-03-22T12:08:45;97843.16;;;15.85;42.99
15674;BME280;7937;48.090;16.212;2024-03-22T12:11:46;97848.00;;;15.83;41.85
15674;BME280;7937;48.090;16.212;2024-03-22T12:14:48;97847.69;;;15.94;41.28
15674;BME280;7937;48.090;16.212;2024-03-22T12:17:51;97837.94;;;16.24;40.11
15674;BME280;7937;48.090;16.212;2024-03-22T12:20:54;97846.59;;;16.00;41.69
15674;BME280;7937;48.090;16.212;2024-03-22T12:23:57;97845.78;;;16.10;41.08
15674;BME280;7937;48.090;16.212;2024-03-22T12:27:06;97845.78;;;16.10;41.18
15674;BME280;7937;48.090;16.212;2024-03-22T12:30:07;97834.97;;;16.31;39.55
15674;BME280;7937;48.090;16.212;2024-03-22T12:33:09;97813.75;;;16.24;40.49
15674;BME280;7937;48.090;16.212;2024-03-22T12:36:11;97828.56;;;16.21;39.58
15674;BME280;7937;48.090;16.212;2024-03-22T12:39:12;97818.06;;;16.20;37.76
15674;BME280;7937;48.090;16.212;2024-03-22T12:42:13;97823.19;;;16.16;37.14
15674;BME280;7937;48.090;16.212;2024-03-22T12:45:14;97823.41;;;16.25;37.56
15674;BME280;7937;48.090;16.212;2024-03-22T12:48:15;97814.59;;;16.09;38.83
15674;BME280;7937;48.090;16.212;2024-03-22T12:51:17;97810.75;;;16.36;38.64
15674;BME280;7937;48.090;16.212;2024-03-22T12:54:19;97809.56;;;16.57;37.64
15674;BME280;7937;48.090;16.212;2024-03-22T12:57:20;97803.78;;;16.24;37.18
15674;BME280;7937;48.090;16.212;2024-03-22T13:00:22;97797.84;;;16.33;37.06
15674;BME280;7937;48.090;16.212;2024-03-22T13:03:23;97785.50;;;16.32;38.20
15674;BME280;7937;48.090;16.212;2024-03-22T13:06:24;97789.44;;;16.49;38.89
15674;BME280;7937;48.090;16.212;2024-03-22T13:09:25;97782.69;;;16.52;39.29
15674;BME280;7937;48.090;16.212;2024-03-22T13:12:28;97782.81;;;16.32;40.50
15674;BME280;7937;48.090;16.212;2024-03-22T13:15:29;97781.16;;;16.41;41.45
15674;BME280;7937;48.090;16.212;2024-03-22T13:18:33;97766.91;;;16.35;39.66
15674;BME280;7937;48.090;16.212;2024-03-22T13:21:34;97763.41;;;16.40;39.64
15674;BME280;7937;48.090;16.212;2024-03-22T13:24:35;97756.16;;;16.35;40.29
15674;BME280;7937;48.090;16.212;2024-03-22T13:27:37;97758.44;;;16.13;39.34
15674;BME280;7937;48.090;16.212;2024-03-22T13:30:42;97754.84;;;16.33;43.32
15674;BME280;7937;48.090;16.212;2024-03-22T13:33:43;97747.59;;;16.28;40.95
15674;BME280;7937;48.090;16.212;2024-03-22T13:36:44;97741.84;;;16.45;40.08
15674;BME280;7937;48.090;16.212;2024-03-22T13:39:49;97727.19;;;16.27;39.37
15674;BME280;7937;48.090;16.212;2024-03-22T13:42:55;97741.34;;;16.43;40.80
15674;BME280;7937;48.090;16.212;2024-03-22T13:45:56;97725.72;;;16.45;40.22
15674;BME280;7937;48.090;16.212;2024-03-22T13:48:58;97727.47;;;16.65;40.56
15674;BME280;7937;48.090;16.212;2024-03-22T13:51:59;97717.69;;;16.40;40.16
15674;BME280;7937;48.090;16.212;2024-03-22T13:55:03;97712.88;;;16.37;42.79
15674;BME280;7937;48.090;16.212;2024-03-22T13:58:05;97710.47;;;16.30;43.33
15674;BME280;7937;48.090;16.212;2024-03-22T14:01:06;97716.72;;;16.20;40.82
15674;BME280;7937;48.090;16.212;2024-03-22T14:04:09;97690.25;;;15.98;41.27
15674;BME280;7937;48.090;16.212;2024-03-22T14:07:11;97698.06;;;15.90;41.85
15674;BME280;7937;48.090;16.212;2024-03-22T14:10:12;97698.31;;;15.93;42.09
15674;BME280;7937;48.090;16.212;2024-03-22T14:13:16;97675.78;;;15.89;42.07
15674;BME280;7937;48.090;16.212;2024-03-22T14:16:18;97692.28;;;16.22;43.58
15674;BME280;7937;48.090;16.212;2024-03-22T14:19:19;97676.84;;;16.38;40.92
15674;BME280;7937;48.090;16.212;2024-03-22T14:22:20;97680.84;;;16.45;42.49
15674;BME280;7937;48.090;16.212;2024-03-22T14:25:21;97669.22;;;16.55;43.38
15674;BME280;7937;48.090;16.212;2024-03-22T14:28:22;97669.69;;;16.62;42.13
15674;BME280;7937;48.090;16.212;2024-03-22T14:31:24;97664.19;;;16.38;42.51
15674;BME280;7937;48.090;16.212;2024-03-22T14:34:24;97656.94;;;16.39;42.22
15674;BME280;7937;48.090;16.212;2024-03-22T14:37:26;97661.78;;;16.37;42.52
15674;BME280;7937;48.090;16.212;2024-03-22T14:40:27;97655.34;;;16.38;45.51
15674;BME280;7937;48.090;16.212;2024-03-22T14:43:28;97649.88;;;16.48;42.09
15674;BME280;7937;48.090;16.212;2024-03-22T14:46:31;97640.22;;;16.47;41.58
15674;BME280;7937;48.090;16.212;2024-03-22T14:49:32;97644.38;;;16.29;42.24
15674;BME280;7937;48.090;16.212;2024-03-22T14:52:34;97633.31;;;16.36;42.19
15674;BME280;7937;48.090;16.212;2024-03-22T14:55:35;97634.91;;;16.37;43.67
15674;BME280;7937;48.090;16.212;2024-03-22T14:58:37;97642.03;;;16.57;42.70
15674;BME280;7937;48.090;16.212;2024-03-22T15:01:38;97633.28;;;16.41;44.90
15674;BME280;7937;48.090;16.212;2024-03-22T15:04:39;97631.47;;;16.31;44.27
15674;BME280;7937;48.090;16.212;2024-03-22T15:07:40;97622.91;;;16.24;44.08
15674;BME280;7937;48.090;16.212;2024-03-22T15:10:41;97587.56;;;16.07;45.69
15674;BME280;7937;48.090;16.212;2024-03-22T15:13:42;97602.03;;;16.06;43.74
15674;BME280;7937;48.090;16.212;2024-03-22T15:16:44;97610.97;;;16.01;45.35
15674;BME280;7937;48.090;16.212;2024-03-22T15:19:45;97622.00;;;15.94;46.99
15674;BME280;7937;48.090;16.212;2024-03-22T15:22:46;97614.25;;;15.88;47.34
15674;BME280;7937;48.090;16.212;2024-03-22T15:25:48;97617.75;;;15.88;48.44
15674;BME280;7937;48.090;16.212;2024-03-22T15:28:52;97612.31;;;15.98;48.39
15674;BME280;7937;48.090;16.212;2024-03-22T15:31:53;97606.50;;;15.86;47.98
15674;BME280;7937;48.090;16.212;2024-03-22T15:34:54;97597.38;;;15.82;47.98
15674;BME280;7937;48.090;16.212;2024-03-22T15:37:55;97602.00;;;15.71;47.21
15674;BME280;7937;48.090;16.212;2024-03-22T15:40:56;97596.66;;;15.66;48.05
15674;BME280;7937;48.090;16.212;2024-03-22T15:43:57;97596.09;;;15.69;48.43
15674;BME280;7937;48.090;16.212;2024-03-22T15:46:58;97589.88;;;15.79;47.51
15674;BME280;7937;48.090;16.212;2024-03-22T15:50:01;97596.63;;;15.71;47.96
15674;BME280;7937;48.090;16.212;2024-03-22T15:53:02;97583.50;;;15.65;48.43
15674;BME280;7937;48.090;16.212;2024-03-22T15:56:04;97587.78;;;15.66;49.05
15674;BME280;7937;48.090;16.212;2024-03-22T15:59:05;97576.50;;;15.59;50.08
15674;BME280;7937;48.090;16.212;2024-03-22T16:02:06;97584.03;;;15.62;49.98
15674;BME280;7937;48.090;16.212;2024-03-22T16:05:07;97583.22;;;15.56;50.14
15674;BME280;7937;48.090;16.212;2024-03-22T16:08:09;97579.75;;;15.51;50.77